sensor_id;sensor_type;location;lat;lon;timestamp;pressure;altitude;pressure_sealevel;temperature;humidity
13732;BME280;6937;56.096;12.664;2023-06-14T00:01:00;101939.06;;;15.47;100.00
13732;BME280;6937;56.096;12.664;2023-06-14T00:03:28;101944.88;;;15.54;100.00
13732;BME280;6937;56.096;12.664;2023-06-14T00:05:54;101924.03;;;15.32;100.00
13732;BME280;6937;56.096;12.664;2023-06-14T00:08:19;101939.47;;;15.41;100.00
13732;BME280;6937;56.096;12.664;2023-06-14T00:10:46;101937.28;;;15.22;100.00
13732;BME280;6937;56.096;12.664;2023-06-14T00:13:12;101931.63;;;15.14;100.00
13732;BME280;6937;56.096;12.664;2023-06-14T00:15:37;101928.06;;;15.14;100.00
13732;BME280;6937;56.096;12.664;2023-06-14T00:18:04;101926.50;;;15.22;100.00
13732;BME280;6937;56.096;12.664;2023-06-14T00:20:31;101927.19;;;15.26;100.00
13732;BME280;6937;56.096;12.664;2023-06-14T00:22:58;101931.41;;;15.17;100.00
13732;BME280;6937;56.096;12.664;2023-06-14T00:25:24;101928.72;;;15.05;100.00
13732;BME280;6937;56.096;12.664;2023-06-14T00:27:53;101925.06;;;15.06;100.00
13732;BME280;6937;56.096;12.664;2023-06-14T00:30:19;101921.97;;;14.99;100.00
13732;BME280;6937;56.096;12.664;2023-06-14T00:32:45;101925.72;;;14.96;100.00
13732;BME280;6937;56.096;12.664;2023-06-14T00:35:11;101931.31;;;14.93;100.00
13732;BME280;6937;56.096;12.664;2023-06-14T00:37:37;101933.94;;;14.95;100.00
13732;BME280;6937;56.096;12.664;2023-06-14T00:40:04;101940.03;;;14.97;100.00
13732;BME280;6937;56.096;12.664;2023-06-14T00:42:29;101937.88;;;15.02;100.00
13732;BME280;6937;56.096;12.664;2023-06-14T00:44:55;101946.06;;;15.00;100.00
13732;BME280;6937;56.096;12.664;2023-06-14T00:47:21;101939.72;;;15.02;100.00
13732;BME280;6937;56.096;12.664;2023-06-14T00:49:47;101935.19;;;15.02;100.00
13732;BME280;6937;56.096;12.664;2023-06-14T00:52:14;101926.59;;;14.97;100.00
13732;BME280;6937;56.096;12.664;2023-06-14T00:54:43;101930.59;;;14.91;100.00
13732;BME280;6937;56.096;12.664;2023-06-14T00:57:09;101928.88;;;14.90;100.00
13732;BME280;6937;56.096;12.664;2023-06-14T00:59:47;101928.78;;;14.92;100.00
13732;BME280;6937;56.096;12.664;2023-06-14T01:02:13;101932.41;;;14.91;100.00
13732;BME280;6937;56.096;12.664;2023-06-14T01:04:40;101932.28;;;14.92;100.00
13732;BME280;6937;56.096;12.664;2023-06-14T01:12:58;101926.09;;;14.54;100.00
13732;BME280;6937;56.096;12.664;2023-06-14T01:15:26;101932.44;;;14.53;100.00
13732;BME280;6937;56.096;12.664;2023-06-14T01:17:53;101933.00;;;14.58;100.00
13732;BME280;6937;56.096;12.664;2023-06-14T01:20:22;101929.22;;;14.61;100.00
13732;BME280;6937;56.096;12.664;2023-06-14T01:22:51;101928.25;;;14.62;100.00
13732;BME280;6937;56.096;12.664;2023-06-14T01:25:18;101942.66;;;14.48;100.00
13732;BME280;6937;56.096;12.664;2023-06-14T01:27:47;101937.78;;;14.28;100.00
13732;BME280;6937;56.096;12.664;2023-06-14T01:30:14;101943.56;;;14.09;100.00
13732;BME280;6937;56.096;12.664;2023-06-14T01:32:40;101934.38;;;13.99;100.00
13732;BME280;6937;56.096;12.664;2023-06-14T01:35:05;101953.84;;;14.02;100.00
13732;BME280;6937;56.096;12.664;2023-06-14T01:37:31;101947.75;;;14.00;100.00
13732;BME280;6937;56.096;12.664;2023-06-14T01:39:57;101960.13;;;14.16;100.00
13732;BME280;6937;56.096;12.664;2023-06-14T01:42:23;101953.47;;;14.21;100.00
13732;BME280;6937;56.096;12.664;2023-06-14T01:44:51;101950.38;;;14.27;100.00
13732;BME280;6937;56.096;12.664;2023-06-14T01:47:17;101955.75;;;14.27;100.00
13732;BME280;6937;56.096;12.664;2023-06-14T01:49:42;101950.56;;;14.12;100.00
13732;BME280;6937;56.096;12.664;2023-06-14T01:52:08;101959.97;;;13.92;100.00
13732;BME280;6937;56.096;12.664;2023-06-14T01:54:35;101954.50;;;13.93;100.00
13732;BME280;6937;56.096;12.664;2023-06-14T01:57:03;101956.09;;;13.96;100.00
13732;BME280;6937;56.096;12.664;2023-06-14T01:59:28;101963.03;;;13.73;100.00
13732;BME280;6937;56.096;12.664;2023-06-14T02:01:54;101959.72;;;13.55;100.00
13732;BME280;6937;56.096;12.664;2023-06-14T02:04:19;101945.69;;;13.38;100.00
13732;BME280;6937;56.096;12.664;2023-06-14T02:06:44;101955.81;;;13.47;100.00
13732;BME280;6937;56.096;12.664;2023-06-14T02:09:10;101955.00;;;13.59;100.00
13732;BME280;6937;56.096;12.664;2023-06-14T02:11:35;101963.16;;;13.84;100.00
13732;BME280;6937;56.096;12.664;2023-06-14T02:14:00;101958.78;;;13.83;100.00
13732;BME280;6937;56.096;12.664;2023-06-14T02:16:26;101963.91;;;13.33;100.00
13732;BME280;6937;56.096;12.664;2023-06-14T02:18:53;101964.31;;;12.84;100.00
13732;BME280;6937;56.096;12.664;2023-06-14T02:21:18;101962.41;;;12.72;100.00
13732;BME280;6937;56.096;12.664;2023-06-14T02:23:44;101965.75;;;12.76;100.00
13732;BME280;6937;56.096;12.664;2023-06-14T02:26:10;101969.50;;;12.73;100.00
13732;BME280;6937;56.096;12.664;2023-06-14T02:28:35;101950.13;;;12.68;100.00
13732;BME280;6937;56.096;12.664;2023-06-14T02:31:01;101950.06;;;12.70;100.00
13732;BME280;6937;56.096;12.664;2023-06-14T02:33:26;101965.38;;;12.82;100.00
13732;BME280;6937;56.096;12.664;2023-06-14T02:35:51;101975.63;;;13.03;100.00
13732;BME280;6937;56.096;12.664;2023-06-14T02:38:18;101968.91;;;13.25;100.00
13732;BME280;6937;56.096;12.664;2023-06-14T02:40:43;101970.47;;;13.15;100.00
13732;BME280;6937;56.096;12.664;2023-06-14T02:43:08;101979.06;;;12.91;100.00
13732;BME280;6937;56.096;12.664;2023-06-14T02:45:34;101967.97;;;12.83;100.00
13732;BME280;6937;56.096;12.664;2023-06-14T02:47:59;101972.09;;;12.89;100.00
13732;BME280;6937;56.096;12.664;2023-06-14T02:50:25;101979.00;;;12.93;100.00
13732;BME280;6937;56.096;12.664;2023-06-14T02:52:51;101974.38;;;12.95;100.00
13732;BME280;6937;56.096;12.664;2023-06-14T02:55:17;101981.19;;;13.00;100.00
13732;BME280;6937;56.096;12.664;2023-06-14T02:57:43;101982.28;;;13.12;100.00
13732;BME280;6937;56.096;12.664;2023-06-14T03:00:09;101976.31;;;13.21;100.00
13732;BME280;6937;56.096;12.664;2023-06-14T03:02:38;101985.59;;;13.30;100.00
13732;BME280;6937;56.096;12.664;2023-06-14T03:05:03;101985.91;;;13.11;100.00
13732;BME280;6937;56.096;12.664;2023-06-14T03:07:31;101984.81;;;12.99;100.00
13732;BME280;6937;56.096;12.664;2023-06-14T03:09:57;101994.13;;;13.08;100.00
13732;BME280;6937;56.096;12.664;2023-06-14T03:12:23;101996.25;;;13.17;100.00
13732;BME280;6937;56.096;12.664;2023-06-14T03:14:49;101994.22;;;13.21;100.00
13732;BME280;6937;56.096;12.664;2023-06-14T03:17:16;101995.97;;;13.22;100.00
13732;BME280;6937;56.096;12.664;2023-06-14T03:19:42;101991.44;;;12.94;100.00
13732;BME280;6937;56.096;12.664;2023-06-14T03:22:08;101998.13;;;12.87;100.00
13732;BME280;6937;56.096;12.664;2023-06-14T03:24:33;101991.44;;;12.94;100.00
13732;BME280;6937;56.096;12.664;2023-06-14T03:27:02;102006.25;;;13.15;100.00
13732;BME280;6937;56.096;12.664;2023-06-14T03:29:27;102018.38;;;13.35;100.00
13732;BME280;6937;56.096;12.664;2023-06-14T03:32:01;102010.00;;;13.53;100.00
13732;BME280;6937;56.096;12.664;2023-06-14T03:34:27;102019.50;;;13.59;100.00
13732;BME280;6937;56.096;12.664;2023-06-14T03:36:52;102016.41;;;13.65;100.00
13732;BME280;6937;56.096;12.664;2023-06-14T03:39:18;102008.16;;;13.68;100.00
13732;BME280;6937;56.096;12.664;2023-06-14T03:41:44;102019.00;;;13.67;100.00
13732;BME280;6937;56.096;12.664;2023-06-14T03:44:09;102011.50;;;13.57;100.00
13732;BME280;6937;56.096;12.664;2023-06-14T03:46:35;102019.00;;;13.67;100.00
13732;BME280;6937;56.096;12.664;2023-06-14T03:49:00;102013.03;;;13.62;100.00
13732;BME280;6937;56.096;12.664;2023-06-14T03:51:28;102038.75;;;13.66;100.00
13732;BME280;6937;56.096;12.664;2023-06-14T03:53:53;102031.09;;;13.60;100.00
13732;BME280;6937;56.096;12.664;2023-06-14T03:56:20;102045.00;;;13.66;100.00
13732;BME280;6937;56.096;12.664;2023-06-14T03:58:46;102036.94;;;13.66;100.00
13732;BME280;6937;56.096;12.664;2023-06-14T04:01:11;102052.75;;;13.71;100.00
13732;BME280;6937;56.096;12.664;2023-06-14T04:03:37;102050.53;;;13.77;100.00
13732;BME280;6937;56.096;12.664;2023-06-14T04:06:04;102042.19;;;13.82;100.00
13732;BME280;6937;56.096;12.664;2023-06-14T04:08:29;102054.91;;;13.92;100.00
13732;BME280;6937;56.096;12.664;2023-06-14T04:10:55;102039.94;;;13.88;100.00
13732;BME280;6937;56.096;12.664;2023-06-14T04:13:20;102048.28;;;13.98;100.00
13732;BME280;6937;56.096;12.664;2023-06-14T04:15:45;102047.28;;;13.99;100.00
13732;BME280;6937;56.096;12.664;2023-06-14T04:18:12;102043.44;;;14.03;100.00
13732;BME280;6937;56.096;12.664;2023-06-14T04:20:38;102046.34;;;14.00;100.00
13732;BME280;6937;56.096;12.664;2023-06-14T04:23:17;102037.09;;;14.04;100.00
13732;BME280;6937;56.096;12.664;2023-06-14T04:25:46;102058.19;;;14.10;100.00
13732;BME280;6937;56.096;12.664;2023-06-14T04:28:13;102055.88;;;14.18;100.00
13732;BME280;6937;56.096;12.664;2023-06-14T04:30:39;102063.63;;;14.23;100.00
13732;BME280;6937;56.096;12.664;2023-06-14T04:33:05;102055.56;;;14.23;100.00
13732;BME280;6937;56.096;12.664;2023-06-14T04:35:32;102060.50;;;14.29;100.00
13732;BME280;6937;56.096;12.664;2023-06-14T04:37:58;102059.78;;;14.27;100.00
13732;BME280;6937;56.096;12.664;2023-06-14T04:40:24;102051.91;;;14.24;100.00
13732;BME280;6937;56.096;12.664;2023-06-14T04:42:50;102049.44;;;14.21;100.00
13732;BME280;6937;56.096;12.664;2023-06-14T04:45:16;102063.31;;;14.27;100.00
13732;BME280;6937;56.096;12.664;2023-06-14T04:47:42;102063.31;;;14.27;100.00
13732;BME280;6937;56.096;12.664;2023-06-14T04:50:09;102060.94;;;14.23;100.00
13732;BME280;6937;56.096;12.664;2023-06-14T04:52:36;102066.66;;;14.31;100.00
13732;BME280;6937;56.096;12.664;2023-06-14T04:55:02;102070.59;;;14.39;100.00
13732;BME280;6937;56.096;12.664;2023-06-14T04:57:28;102061.16;;;14.46;100.00
13732;BME280;6937;56.096;12.664;2023-06-14T04:59:54;102080.78;;;14.61;100.00
13732;BME280;6937;56.096;12.664;2023-06-14T05:02:21;102071.41;;;14.67;100.00
13732;BME280;6937;56.096;12.664;2023-06-14T05:04:47;102074.56;;;14.73;100.00
13732;BME280;6937;56.096;12.664;2023-06-14T05:07:12;102078.53;;;14.80;100.00
13732;BME280;6937;56.096;12.664;2023-06-14T05:09:39;102064.22;;;14.92;100.00
13732;BME280;6937;56.096;12.664;2023-06-14T05:12:05;102068.09;;;15.01;100.00
13732;BME280;6937;56.096;12.664;2023-06-14T05:14:33;102070.16;;;15.10;100.00
13732;BME280;6937;56.096;12.664;2023-06-14T05:16:59;102078.22;;;15.23;100.00
13732;BME280;6937;56.096;12.664;2023-06-14T05:19:25;102063.03;;;15.22;100.00
13732;BME280;6937;56.096;12.664;2023-06-14T05:21:50;102067.84;;;15.42;100.00
13732;BME280;6937;56.096;12.664;2023-06-14T05:24:16;102076.28;;;15.50;100.00
13732;BME280;6937;56.096;12.664;2023-06-14T05:26:45;102061.06;;;15.49;100.00
13732;BME280;6937;56.096;12.664;2023-06-14T05:29:10;102068.72;;;15.55;100.00
13732;BME280;6937;56.096;12.664;2023-06-14T05:31:36;102076.78;;;15.68;100.00
13732;BME280;6937;56.096;12.664;2023-06-14T05:34:02;102075.97;;;15.78;100.00
13732;BME280;6937;56.096;12.664;2023-06-14T05:36:27;102077.06;;;15.88;100.00
13732;BME280;6937;56.096;12.664;2023-06-14T05:38:54;102064.94;;;15.94;100.00
13732;BME280;6937;56.096;12.664;2023-06-14T05:41:27;102076.94;;;16.14;100.00
13732;BME280;6937;56.096;12.664;2023-06-14T05:43:54;102068.03;;;16.24;100.00
13732;BME280;6937;56.096;12.664;2023-06-14T05:46:20;102062.53;;;16.26;100.00
13732;BME280;6937;56.096;12.664;2023-06-14T05:48:49;102070.44;;;16.40;100.00
13732;BME280;6937;56.096;12.664;2023-06-14T05:51:15;102071.91;;;16.57;100.00
13732;BME280;6937;56.096;12.664;2023-06-14T05:53:47;102069.97;;;16.70;100.00
13732;BME280;6937;56.096;12.664;2023-06-14T05:56:13;102063.63;;;16.82;100.00
13732;BME280;6937;56.096;12.664;2023-06-14T05:58:39;102066.34;;;16.93;100.00
13732;BME280;6937;56.096;12.664;2023-06-14T06:01:04;102070.66;;;17.07;100.00
13732;BME280;6937;56.096;12.664;2023-06-14T06:03:29;102068.09;;;17.16;100.00
13732;BME280;6937;56.096;12.664;2023-06-14T06:05:55;102066.47;;;17.25;100.00
13732;BME280;6937;56.096;12.664;2023-06-14T06:08:21;102067.59;;;17.33;100.00
13732;BME280;6937;56.096;12.664;2023-06-14T06:10:46;102060.72;;;17.40;100.00
13732;BME280;6937;56.096;12.664;2023-06-14T06:13:11;102062.53;;;17.51;100.00
13732;BME280;6937;56.096;12.664;2023-06-14T06:15:37;102058.28;;;17.60;100.00
13732;BME280;6937;56.096;12.664;2023-06-14T06:18:02;102064.53;;;17.71;100.00
13732;BME280;6937;56.096;12.664;2023-06-14T06:20:29;102052.97;;;17.80;100.00
13732;BME280;6937;56.096;12.664;2023-06-14T06:22:57;102039.44;;;17.80;100.00
13732;BME280;6937;56.096;12.664;2023-06-14T06:25:23;102052.81;;;17.93;100.00
13732;BME280;6937;56.096;12.664;2023-06-14T06:27:51;102060.28;;;18.01;100.00
13732;BME280;6937;56.096;12.664;2023-06-14T06:30:17;102060.78;;;18.06;100.00
13732;BME280;6937;56.096;12.664;2023-06-14T06:32:43;102065.41;;;18.15;100.00
13732;BME280;6937;56.096;12.664;2023-06-14T06:35:08;102075.72;;;18.21;100.00
13732;BME280;6937;56.096;12.664;2023-06-14T06:37:36;102080.78;;;18.25;100.00
13732;BME280;6937;56.096;12.664;2023-06-14T06:40:01;102085.06;;;18.28;100.00
13732;BME280;6937;56.096;12.664;2023-06-14T06:42:28;102086.13;;;18.37;100.00
13732;BME280;6937;56.096;12.664;2023-06-14T06:44:54;102091.13;;;18.41;100.00
13732;BME280;6937;56.096;12.664;2023-06-14T06:47:19;102086.09;;;18.48;100.00
13732;BME280;6937;56.096;12.664;2023-06-14T06:49:45;102098.00;;;18.56;100.00
13732;BME280;6937;56.096;12.664;2023-06-14T06:52:10;102095.84;;;18.71;100.00
13732;BME280;6937;56.096;12.664;2023-06-14T06:54:35;102087.31;;;18.75;100.00
13732;BME280;6937;56.096;12.664;2023-06-14T06:57:01;102101.06;;;18.83;100.00
13732;BME280;6937;56.096;12.664;2023-06-14T06:59:27;102095.75;;;18.93;100.00
13732;BME280;6937;56.096;12.664;2023-06-14T07:01:52;102104.19;;;19.00;100.00
13732;BME280;6937;56.096;12.664;2023-06-14T07:04:18;102103.38;;;19.09;100.00
13732;BME280;6937;56.096;12.664;2023-06-14T07:06:43;102096.84;;;19.11;100.00
13732;BME280;6937;56.096;12.664;2023-06-14T07:09:09;102106.47;;;19.25;100.00
13732;BME280;6937;56.096;12.664;2023-06-14T07:11:42;102101.94;;;19.35;100.00
13732;BME280;6937;56.096;12.664;2023-06-14T07:14:07;102110.31;;;19.43;100.00
13732;BME280;6937;56.096;12.664;2023-06-14T07:16:33;102112.03;;;19.44;100.00
13732;BME280;6937;56.096;12.664;2023-06-14T07:18:58;102113.81;;;19.34;100.00
13732;BME280;6937;56.096;12.664;2023-06-14T07:21:25;102115.38;;;19.37;100.00
13732;BME280;6937;56.096;12.664;2023-06-14T07:23:53;102108.56;;;19.42;100.00
13732;BME280;6937;56.096;12.664;2023-06-14T07:26:19;102116.19;;;19.48;100.00
13732;BME280;6937;56.096;12.664;2023-06-14T07:28:46;102108.19;;;19.47;100.00
13732;BME280;6937;56.096;12.664;2023-06-14T07:31:12;102121.06;;;19.54;100.00
13732;BME280;6937;56.096;12.664;2023-06-14T07:33:38;102127.81;;;19.60;100.00
13732;BME280;6937;56.096;12.664;2023-06-14T07:36:03;102122.00;;;19.64;100.00
13732;BME280;6937;56.096;12.664;2023-06-14T07:38:29;102127.63;;;19.82;100.00
13732;BME280;6937;56.096;12.664;2023-06-14T07:40:54;102127.81;;;20.00;100.00
13732;BME280;6937;56.096;12.664;2023-06-14T07:43:20;102116.81;;;20.11;100.00
13732;BME280;6937;56.096;12.664;2023-06-14T07:45:45;102116.28;;;20.17;100.00
13732;BME280;6937;56.096;12.664;2023-06-14T07:48:11;102115.44;;;20.26;100.00
13732;BME280;6937;56.096;12.664;2023-06-14T07:50:36;102115.31;;;20.37;100.00
13732;BME280;6937;56.096;12.664;2023-06-14T07:53:02;102114.78;;;20.53;97.92
13732;BME280;6937;56.096;12.664;2023-06-14T07:55:27;102114.22;;;20.68;95.89
13732;BME280;6937;56.096;12.664;2023-06-14T07:57:53;102107.63;;;20.81;93.29
13732;BME280;6937;56.096;12.664;2023-06-14T08:00:19;102119.47;;;20.89;88.94
13732;BME280;6937;56.096;12.664;2023-06-14T08:02:46;102116.34;;;20.84;84.39
13732;BME280;6937;56.096;12.664;2023-06-14T08:05:11;102133.94;;;20.80;82.13
13732;BME280;6937;56.096;12.664;2023-06-14T08:07:38;102137.94;;;20.86;82.46
13732;BME280;6937;56.096;12.664;2023-06-14T08:10:05;102118.19;;;21.03;82.79
13732;BME280;6937;56.096;12.664;2023-06-14T08:12:32;102133.16;;;21.26;81.76
13732;BME280;6937;56.096;12.664;2023-06-14T08:14:57;102124.75;;;21.19;79.77
13732;BME280;6937;56.096;12.664;2023-06-14T08:17:23;102135.88;;;21.36;79.06
13732;BME280;6937;56.096;12.664;2023-06-14T08:19:48;102134.72;;;21.38;77.81
13732;BME280;6937;56.096;12.664;2023-06-14T08:22:13;102126.16;;;21.33;82.34
13732;BME280;6937;56.096;12.664;2023-06-14T08:24:39;102110.56;;;21.26;85.87
13732;BME280;6937;56.096;12.664;2023-06-14T08:27:06;102095.81;;;21.18;85.91
13732;BME280;6937;56.096;12.664;2023-06-14T08:29:31;102102.00;;;21.20;87.08
13732;BME280;6937;56.096;12.664;2023-06-14T08:31:57;102102.13;;;21.19;86.36
13732;BME280;6937;56.096;12.664;2023-06-14T08:34:22;102098.72;;;21.17;86.96
13732;BME280;6937;56.096;12.664;2023-06-14T08:36:51;102094.72;;;21.02;86.62
13732;BME280;6937;56.096;12.664;2023-06-14T08:39:16;102098.00;;;21.05;87.39
13732;BME280;6937;56.096;12.664;2023-06-14T08:41:44;102081.09;;;21.11;86.01
13732;BME280;6937;56.096;12.664;2023-06-14T08:44:11;102099.72;;;21.16;83.88
13732;BME280;6937;56.096;12.664;2023-06-14T08:46:37;102115.03;;;21.17;82.61
13732;BME280;6937;56.096;12.664;2023-06-14T08:49:03;102121.16;;;21.19;81.73
13732;BME280;6937;56.096;12.664;2023-06-14T08:51:31;102111.41;;;21.26;81.45
13732;BME280;6937;56.096;12.664;2023-06-14T08:54:02;102114.13;;;21.26;82.11
13732;BME280;6937;56.096;12.664;2023-06-14T08:56:29;102122.28;;;21.36;79.61
13732;BME280;6937;56.096;12.664;2023-06-14T08:58:57;102129.09;;;21.49;77.30
13732;BME280;6937;56.096;12.664;2023-06-14T09:01:23;102134.53;;;21.59;74.92
13732;BME280;6937;56.096;12.664;2023-06-14T09:03:49;102136.50;;;21.57;74.33
13732;BME280;6937;56.096;12.664;2023-06-14T09:06:15;102136.38;;;21.58;75.46
13732;BME280;6937;56.096;12.664;2023-06-14T09:08:45;102123.34;;;21.52;74.82
13732;BME280;6937;56.096;12.664;2023-06-14T09:11:12;102124.25;;;21.43;74.60
13732;BME280;6937;56.096;12.664;2023-06-14T09:13:41;102123.97;;;21.46;75.72
13732;BME280;6937;56.096;12.664;2023-06-14T09:16:07;102122.22;;;21.55;75.48
13732;BME280;6937;56.096;12.664;2023-06-14T09:18:44;102119.50;;;21.55;74.74
13732;BME280;6937;56.096;12.664;2023-06-14T09:21:11;102115.91;;;21.54;74.44
13732;BME280;6937;56.096;12.664;2023-06-14T09:23:41;102119.59;;;21.63;75.00
13732;BME280;6937;56.096;12.664;2023-06-14T09:26:11;102120.16;;;21.66;74.21
13732;BME280;6937;56.096;12.664;2023-06-14T09:28:47;102128.91;;;21.60;73.81
13732;BME280;6937;56.096;12.664;2023-06-14T09:31:15;102128.22;;;21.58;73.07
13732;BME280;6937;56.096;12.664;2023-06-14T09:33:45;102122.34;;;21.53;72.63
13732;BME280;6937;56.096;12.664;2023-06-14T09:36:21;102114.81;;;21.47;73.08
13732;BME280;6937;56.096;12.664;2023-06-14T09:38:56;102119.09;;;21.77;74.27
13732;BME280;6937;56.096;12.664;2023-06-14T09:41:51;102119.13;;;21.67;73.14
13732;BME280;6937;56.096;12.664;2023-06-14T09:44:16;102114.00;;;21.64;73.19
13732;BME280;6937;56.096;12.664;2023-06-14T09:46:43;102121.97;;;21.76;73.34
13732;BME280;6937;56.096;12.664;2023-06-14T09:49:09;102117.63;;;21.83;73.34
13732;BME280;6937;56.096;12.664;2023-06-14T09:51:37;102116.88;;;21.90;72.27
13732;BME280;6937;56.096;12.664;2023-06-14T09:54:08;102121.91;;;21.95;71.20
13732;BME280;6937;56.096;12.664;2023-06-14T09:56:37;102123.78;;;21.94;71.36
13732;BME280;6937;56.096;12.664;2023-06-14T09:59:07;102119.72;;;21.98;69.87
13732;BME280;6937;56.096;12.664;2023-06-14T10:01:35;102116.16;;;21.98;70.54
13732;BME280;6937;56.096;12.664;2023-06-14T10:04:04;102104.81;;;22.02;72.49
13732;BME280;6937;56.096;12.664;2023-06-14T10:06:30;102101.41;;;22.18;73.59
13732;BME280;6937;56.096;12.664;2023-06-14T10:08:59;102103.69;;;22.23;71.45
13732;BME280;6937;56.096;12.664;2023-06-14T10:11:26;102114.50;;;22.32;72.30
13732;BME280;6937;56.096;12.664;2023-06-14T10:13:52;102111.09;;;22.30;72.32
13732;BME280;6937;56.096;12.664;2023-06-14T10:16:24;102105.47;;;22.32;71.53
13732;BME280;6937;56.096;12.664;2023-06-14T10:19:06;102111.84;;;22.23;70.45
13732;BME280;6937;56.096;12.664;2023-06-14T10:21:55;102095.28;;;22.34;70.46
13732;BME280;6937;56.096;12.664;2023-06-14T10:24:30;102116.59;;;22.38;67.76
13732;BME280;6937;56.096;12.664;2023-06-14T10:26:58;102116.00;;;22.27;67.50
13732;BME280;6937;56.096;12.664;2023-06-14T10:29:25;102100.09;;;22.22;69.59
13732;BME280;6937;56.096;12.664;2023-06-14T10:31:55;102104.22;;;22.26;68.18
13732;BME280;6937;56.096;12.664;2023-06-14T10:34:23;102117.31;;;22.23;67.74
13732;BME280;6937;56.096;12.664;2023-06-14T10:37:00;102088.13;;;22.15;70.34
13732;BME280;6937;56.096;12.664;2023-06-14T10:39:28;102098.38;;;22.39;71.21
13732;BME280;6937;56.096;12.664;2023-06-14T10:41:55;102092.31;;;22.62;71.13
13732;BME280;6937;56.096;12.664;2023-06-14T10:46:47;102097.00;;;22.70;69.05
13732;BME280;6937;56.096;12.664;2023-06-14T10:49:16;102092.81;;;22.76;70.07
13732;BME280;6937;56.096;12.664;2023-06-14T10:51:45;102091.59;;;22.96;71.36
13732;BME280;6937;56.096;12.664;2023-06-14T10:54:13;102080.28;;;23.08;71.52
13732;BME280;6937;56.096;12.664;2023-06-14T10:56:49;102074.81;;;23.08;70.80
13732;BME280;6937;56.096;12.664;2023-06-14T10:59:15;102078.50;;;22.99;70.92
13732;BME280;6937;56.096;12.664;2023-06-14T11:04:20;102073.44;;;23.04;68.69
13732;BME280;6937;56.096;12.664;2023-06-14T11:06:47;102079.34;;;23.00;71.11
13732;BME280;6937;56.096;12.664;2023-06-14T11:11:51;102083.06;;;23.17;68.83
13732;BME280;6937;56.096;12.664;2023-06-14T11:14:19;102091.84;;;23.28;66.64
13732;BME280;6937;56.096;12.664;2023-06-14T11:16:49;102092.38;;;22.88;65.24
13732;BME280;6937;56.096;12.664;2023-06-14T11:19:14;102082.09;;;22.64;65.65
13732;BME280;6937;56.096;12.664;2023-06-14T11:21:42;102088.84;;;22.70;67.21
13732;BME280;6937;56.096;12.664;2023-06-14T11:24:11;102069.50;;;22.63;66.25
13732;BME280;6937;56.096;12.664;2023-06-14T11:26:38;102074.50;;;22.86;66.34
13732;BME280;6937;56.096;12.664;2023-06-14T11:29:03;102099.44;;;22.99;65.73
13732;BME280;6937;56.096;12.664;2023-06-14T11:31:29;102093.13;;;22.98;63.65
13732;BME280;6937;56.096;12.664;2023-06-14T11:33:56;102089.03;;;22.94;65.20
13732;BME280;6937;56.096;12.664;2023-06-14T11:36:22;102087.91;;;23.05;65.32
13732;BME280;6937;56.096;12.664;2023-06-14T11:38:48;102082.03;;;23.18;66.72
13732;BME280;6937;56.096;12.664;2023-06-14T11:41:13;102074.88;;;23.17;64.77
13732;BME280;6937;56.096;12.664;2023-06-14T11:43:40;102081.50;;;23.14;64.89
13732;BME280;6937;56.096;12.664;2023-06-14T11:46:12;102074.09;;;23.32;64.68
13732;BME280;6937;56.096;12.664;2023-06-14T11:48:41;102082.59;;;23.55;62.49
13732;BME280;6937;56.096;12.664;2023-06-14T11:51:07;102087.19;;;23.21;60.83
13732;BME280;6937;56.096;12.664;2023-06-14T11:53:32;102077.22;;;23.11;60.32
13732;BME280;6937;56.096;12.664;2023-06-14T11:55:58;102082.47;;;23.31;62.02
13732;BME280;6937;56.096;12.664;2023-06-14T11:58:25;102072.41;;;23.31;60.82
13732;BME280;6937;56.096;12.664;2023-06-14T12:00:52;102075.88;;;23.16;59.49
13732;BME280;6937;56.096;12.664;2023-06-14T12:03:17;102075.47;;;23.28;61.17
13732;BME280;6937;56.096;12.664;2023-06-14T12:05:42;102078.47;;;23.43;59.85
13732;BME280;6937;56.096;12.664;2023-06-14T12:08:08;102088.78;;;23.31;58.01
13732;BME280;6937;56.096;12.664;2023-06-14T12:10:40;102066.09;;;23.31;58.40
13732;BME280;6937;56.096;12.664;2023-06-14T12:13:09;102060.03;;;23.45;58.89
13732;BME280;6937;56.096;12.664;2023-06-14T12:15:35;102070.97;;;23.45;55.94
13732;BME280;6937;56.096;12.664;2023-06-14T12:18:01;102066.38;;;23.45;56.17
13732;BME280;6937;56.096;12.664;2023-06-14T12:20:30;102058.44;;;23.34;56.03
13732;BME280;6937;56.096;12.664;2023-06-14T12:22:58;102060.47;;;23.66;57.33
13732;BME280;6937;56.096;12.664;2023-06-14T12:25:31;102066.72;;;24.00;55.49
13732;BME280;6937;56.096;12.664;2023-06-14T12:27:58;102074.44;;;24.05;53.81
13732;BME280;6937;56.096;12.664;2023-06-14T12:30:23;102061.84;;;23.70;53.94
13732;BME280;6937;56.096;12.664;2023-06-14T12:32:49;102069.41;;;23.76;53.46
13732;BME280;6937;56.096;12.664;2023-06-14T12:35:16;102053.25;;;23.99;54.32
13732;BME280;6937;56.096;12.664;2023-06-14T12:37:41;102059.03;;;23.96;52.93
13732;BME280;6937;56.096;12.664;2023-06-14T12:40:07;102052.91;;;24.02;53.33
13732;BME280;6937;56.096;12.664;2023-06-14T12:42:33;102058.53;;;24.00;52.25
13732;BME280;6937;56.096;12.664;2023-06-14T12:44:59;102050.03;;;24.12;53.23
13732;BME280;6937;56.096;12.664;2023-06-14T12:47:24;102038.56;;;24.00;52.25
13732;BME280;6937;56.096;12.664;2023-06-14T12:49:50;102038.56;;;24.00;52.56
13732;BME280;6937;56.096;12.664;2023-06-14T12:52:15;102054.19;;;24.32;52.02
13732;BME280;6937;56.096;12.664;2023-06-14T12:54:41;102059.50;;;24.41;50.75